sensor_id;sensor_type;location;lat;lon;timestamp;pressure;altitude;pressure_sealevel;temperature;humidity
53550;BME280;67273;52.914;-0.982;2023-05-21T00:02:15;102216.56;;;20.54;50.41
53550;BME280;67273;52.914;-0.982;2023-05-21T00:04:44;102214.91;;;20.52;50.46
53550;BME280;67273;52.914;-0.982;2023-05-21T00:07:10;102212.38;;;20.51;50.66
53550;BME280;67273;52.914;-0.982;2023-05-21T00:09:37;102210.69;;;20.50;50.28
53550;BME280;67273;52.914;-0.982;2023-05-21T00:12:03;102212.59;;;20.49;50.18
53550;BME280;67273;52.914;-0.982;2023-05-21T00:14:29;102217.00;;;20.50;50.38
53550;BME280;67273;52.914;-0.982;2023-05-21T00:16:55;102208.22;;;20.48;50.29
53550;BME280;67273;52.914;-0.982;2023-05-21T00:19:21;102201.88;;;20.48;50.22
53550;BME280;67273;52.914;-0.982;2023-05-21T00:21:48;102199.16;;;20.48;50.21
53550;BME280;67273;52.914;-0.982;2023-05-21T00:24:14;102191.19;;;20.46;50.33
53550;BME280;67273;52.914;-0.982;2023-05-21T00:26:40;102198.53;;;20.46;50.28
53550;BME280;67273;52.914;-0.982;2023-05-21T00:29:06;102201.25;;;20.46;50.40
53550;BME280;67273;52.914;-0.982;2023-05-21T00:31:31;102202.34;;;20.45;50.42
53550;BME280;67273;52.914;-0.982;2023-05-21T00:33:58;102203.38;;;20.44;50.27
53550;BME280;67273;52.914;-0.982;2023-05-21T00:36:24;102204.41;;;20.43;50.17
53550;BME280;67273;52.914;-0.982;2023-05-21T00:38:51;102204.41;;;20.43;50.17
53550;BME280;67273;52.914;-0.982;2023-05-21T00:41:17;102197.28;;;20.42;50.25
53550;BME280;67273;52.914;-0.982;2023-05-21T00:43:43;102190.13;;;20.41;50.16
53550;BME280;67273;52.914;-0.982;2023-05-21T00:46:10;102191.22;;;20.40;50.16
53550;BME280;67273;52.914;-0.982;2023-05-21T00:48:36;102193.09;;;20.39;50.35
53550;BME280;67273;52.914;-0.982;2023-05-21T00:51:02;102192.25;;;20.39;50.39
53550;BME280;67273;52.914;-0.982;2023-05-21T00:53:29;102191.44;;;20.38;50.22
53550;BME280;67273;52.914;-0.982;2023-05-21T00:55:57;102196.06;;;20.38;50.32
53550;BME280;67273;52.914;-0.982;2023-05-21T00:58:22;102199.81;;;20.37;50.29
53550;BME280;67273;52.914;-0.982;2023-05-21T01:00:48;102191.63;;;20.37;50.18
53550;BME280;67273;52.914;-0.982;2023-05-21T01:03:14;102180.91;;;20.35;50.13
53550;BME280;67273;52.914;-0.982;2023-05-21T01:05:41;102174.63;;;20.35;50.29
53550;BME280;67273;52.914;-0.982;2023-05-21T01:08:09;102176.50;;;20.34;50.22
53550;BME280;67273;52.914;-0.982;2023-05-21T01:10:35;102173.78;;;20.34;50.01
53550;BME280;67273;52.914;-0.982;2023-05-21T01:13:02;102172.13;;;20.33;50.18
53550;BME280;67273;52.914;-0.982;2023-05-21T01:15:28;102170.44;;;20.32;50.13
53550;BME280;67273;52.914;-0.982;2023-05-21T01:17:55;102157.84;;;20.31;50.20
53550;BME280;67273;52.914;-0.982;2023-05-21T01:20:22;102161.63;;;20.30;50.20
53550;BME280;67273;52.914;-0.982;2023-05-21T01:22:52;102167.06;;;20.30;50.25
53550;BME280;67273;52.914;-0.982;2023-05-21T01:25:18;102155.31;;;20.29;50.11
53550;BME280;67273;52.914;-0.982;2023-05-21T01:27:44;102148.19;;;20.28;50.28
53550;BME280;67273;52.914;-0.982;2023-05-21T01:30:11;102144.63;;;20.28;50.17
53550;BME280;67273;52.914;-0.982;2023-05-21T01:32:41;102143.78;;;20.27;49.96
53550;BME280;67273;52.914;-0.982;2023-05-21T01:35:12;102145.66;;;20.27;50.10
53550;BME280;67273;52.914;-0.982;2023-05-21T01:37:45;102154.91;;;20.26;50.04
53550;BME280;67273;52.914;-0.982;2023-05-21T01:40:19;102158.69;;;20.25;50.19
53550;BME280;67273;52.914;-0.982;2023-05-21T01:42:47;102161.63;;;20.23;49.97
53550;BME280;67273;52.914;-0.982;2023-05-21T01:45:14;102173.41;;;20.24;50.11
53550;BME280;67273;52.914;-0.982;2023-05-21T01:47:43;102161.63;;;20.23;49.99
53550;BME280;67273;52.914;-0.982;2023-05-21T01:50:12;102152.81;;;20.21;50.08
53550;BME280;67273;52.914;-0.982;2023-05-21T01:52:38;102151.16;;;20.20;50.13
53550;BME280;67273;52.914;-0.982;2023-05-21T01:55:06;102152.00;;;20.21;50.21
53550;BME280;67273;52.914;-0.982;2023-05-21T01:57:33;102144.00;;;20.19;50.05
53550;BME280;67273;52.914;-0.982;2023-05-21T01:59:59;102133.09;;;20.19;50.09
53550;BME280;67273;52.914;-0.982;2023-05-21T02:02:25;102142.34;;;20.18;50.07
53550;BME280;67273;52.914;-0.982;2023-05-21T02:04:51;102136.91;;;20.18;49.89
53550;BME280;67273;52.914;-0.982;2023-05-21T02:07:17;102138.97;;;20.16;50.17
53550;BME280;67273;52.914;-0.982;2023-05-21T02:09:44;102144.44;;;20.16;50.04
53550;BME280;67273;52.914;-0.982;2023-05-21T02:12:11;102148.22;;;20.15;50.00
53550;BME280;67273;52.914;-0.982;2023-05-21T02:14:38;102145.50;;;20.15;50.01
53550;BME280;67273;52.914;-0.982;2023-05-21T02:17:04;102152.81;;;20.14;49.92
53550;BME280;67273;52.914;-0.982;2023-05-21T02:19:30;102153.91;;;20.13;49.95
53550;BME280;67273;52.914;-0.982;2023-05-21T02:21:56;102160.38;;;20.12;50.05
53550;BME280;67273;52.914;-0.982;2023-05-21T02:24:22;102156.00;;;20.11;49.97
53550;BME280;67273;52.914;-0.982;2023-05-21T02:26:49;102163.31;;;20.11;49.97
53550;BME280;67273;52.914;-0.982;2023-05-21T02:29:16;102171.50;;;20.11;49.92
53550;BME280;67273;52.914;-0.982;2023-05-21T02:31:43;102168.78;;;20.11;50.02
53550;BME280;67273;52.914;-0.982;2023-05-21T02:34:09;102170.88;;;20.09;49.92
53550;BME280;67273;52.914;-0.982;2023-05-21T02:36:35;102163.78;;;20.08;49.92
53550;BME280;67273;52.914;-0.982;2023-05-21T02:39:00;102163.78;;;20.08;49.92
53550;BME280;67273;52.914;-0.982;2023-05-21T02:41:28;102167.53;;;20.07;50.20
53550;BME280;67273;52.914;-0.982;2023-05-21T02:44:01;102166.72;;;20.06;49.92
53550;BME280;67273;52.914;-0.982;2023-05-21T02:46:29;102160.41;;;20.06;49.96
53550;BME280;67273;52.914;-0.982;2023-05-21T02:48:56;102164.19;;;20.05;50.02
53550;BME280;67273;52.914;-0.982;2023-05-21T02:51:22;102162.28;;;20.05;49.91
53550;BME280;67273;52.914;-0.982;2023-05-21T02:53:48;102157.03;;;20.04;49.92
53550;BME280;67273;52.914;-0.982;2023-05-21T02:56:14;102157.03;;;20.04;49.86
53550;BME280;67273;52.914;-0.982;2023-05-21T02:58:40;102156.22;;;20.03;49.87
53550;BME280;67273;52.914;-0.982;2023-05-21T03:01:06;102151.81;;;20.02;49.84
53550;BME280;67273;52.914;-0.982;2023-05-21T03:03:33;102150.97;;;20.02;49.87
53550;BME280;67273;52.914;-0.982;2023-05-21T03:06:00;102149.31;;;20.01;49.91
53550;BME280;67273;52.914;-0.982;2023-05-21T03:08:25;102147.41;;;20.01;49.60
53550;BME280;67273;52.914;-0.982;2023-05-21T03:10:51;102146.56;;;20.01;49.88
53550;BME280;67273;52.914;-0.982;2023-05-21T03:13:17;102145.97;;;19.99;50.02
53550;BME280;67273;52.914;-0.982;2023-05-21T03:15:43;102142.38;;;19.98;49.91
53550;BME280;67273;52.914;-0.982;2023-05-21T03:18:10;102147.00;;;19.98;49.88
53550;BME280;67273;52.914;-0.982;2023-05-21T03:20:37;102135.47;;;19.96;49.88
53550;BME280;67273;52.914;-0.982;2023-05-21T03:23:09;102139.00;;;19.96;49.89
53550;BME280;67273;52.914;-0.982;2023-05-21T03:25:37;102139.00;;;19.96;49.96
53550;BME280;67273;52.914;-0.982;2023-05-21T03:28:03;102135.47;;;19.96;49.76
53550;BME280;67273;52.914;-0.982;2023-05-21T03:30:44;102145.75;;;19.93;49.76
53550;BME280;67273;52.914;-0.982;2023-05-21T03:33:34;102138.59;;;19.92;49.80
53550;BME280;67273;52.914;-0.982;2023-05-21T03:36:07;102144.06;;;19.92;49.74
53550;BME280;67273;52.914;-0.982;2023-05-21T03:38:39;102136.91;;;19.91;50.00
53550;BME280;67273;52.914;-0.982;2023-05-21T03:41:09;102140.72;;;19.90;49.76
53550;BME280;67273;52.914;-0.982;2023-05-21T03:43:37;102135.25;;;19.90;49.67
53550;BME280;67273;52.914;-0.982;2023-05-21T03:46:07;102133.56;;;19.89;49.88
53550;BME280;67273;52.914;-0.982;2023-05-21T03:48:57;102139.03;;;19.89;49.73
53550;BME280;67273;52.914;-0.982;2023-05-21T03:51:24;102142.81;;;19.88;49.78
53550;BME280;67273;52.914;-0.982;2023-05-21T03:53:52;102138.41;;;19.87;49.75
53550;BME280;67273;52.914;-0.982;2023-05-21T03:56:18;102135.66;;;19.87;49.71
53550;BME280;67273;52.914;-0.982;2023-05-21T03:58:44;102134.84;;;19.87;49.64
53550;BME280;67273;52.914;-0.982;2023-05-21T04:01:10;102133.16;;;19.86;49.74
53550;BME280;67273;52.914;-0.982;2023-05-21T04:03:36;102137.78;;;19.85;49.68
53550;BME280;67273;52.914;-0.982;2023-05-21T04:06:02;102138.81;;;19.84;49.79
53550;BME280;67273;52.914;-0.982;2023-05-21T04:08:27;102138.81;;;19.84;49.60
53550;BME280;67273;52.914;-0.982;2023-05-21T04:10:54;102128.97;;;19.83;49.64
53550;BME280;67273;52.914;-0.982;2023-05-21T04:13:20;102134.41;;;19.83;49.63
53550;BME280;67273;52.914;-0.982;2023-05-21T04:15:47;102134.41;;;19.83;49.70
53550;BME280;67273;52.914;-0.982;2023-05-21T04:18:13;102137.34;;;19.82;49.71
53550;BME280;67273;52.914;-0.982;2023-05-21T04:20:41;102131.06;;;19.81;49.64
53550;BME280;67273;52.914;-0.982;2023-05-21T04:23:07;102132.09;;;19.80;49.72
53550;BME280;67273;52.914;-0.982;2023-05-21T04:25:33;102134.84;;;19.80;49.75
53550;BME280;67273;52.914;-0.982;2023-05-21T04:28:01;102127.72;;;19.79;49.66
53550;BME280;67273;52.914;-0.982;2023-05-21T04:30:27;102126.88;;;19.79;49.73
53550;BME280;67273;52.914;-0.982;2023-05-21T04:32:53;102124.34;;;19.77;49.46
53550;BME280;67273;52.914;-0.982;2023-05-21T04:35:19;102128.13;;;19.76;49.47
53550;BME280;67273;52.914;-0.982;2023-05-21T04:37:45;102128.13;;;19.76;49.73
53550;BME280;67273;52.914;-0.982;2023-05-21T04:40:11;102120.16;;;19.74;49.39
53550;BME280;67273;52.914;-0.982;2023-05-21T04:42:43;102123.72;;;19.75;49.54
53550;BME280;67273;52.914;-0.982;2023-05-21T04:45:12;102130.25;;;19.74;49.45
53550;BME280;67273;52.914;-0.982;2023-05-21T04:47:41;102134.84;;;19.73;49.61
53550;BME280;67273;52.914;-0.982;2023-05-21T04:50:08;102132.97;;;19.74;49.52
53550;BME280;67273;52.914;-0.982;2023-05-21T04:52:38;102135.88;;;19.72;49.50
53550;BME280;67273;52.914;-0.982;2023-05-21T04:55:05;102137.75;;;19.72;49.56
53550;BME280;67273;52.914;-0.982;2023-05-21T04:57:31;102137.97;;;19.70;49.49
53550;BME280;67273;52.914;-0.982;2023-05-21T04:59:58;102133.34;;;19.71;49.46
53550;BME280;67273;52.914;-0.982;2023-05-21T05:02:29;102127.28;;;19.69;49.60
53550;BME280;67273;52.914;-0.982;2023-05-21T05:04:54;102127.28;;;19.69;49.54
53550;BME280;67273;52.914;-0.982;2023-05-21T05:07:20;102125.38;;;19.69;49.44
53550;BME280;67273;52.914;-0.982;2023-05-21T05:09:46;102117.41;;;19.68;49.52
53550;BME280;67273;52.914;-0.982;2023-05-21T05:12:12;102119.28;;;19.67;49.37
53550;BME280;67273;52.914;-0.982;2023-05-21T05:14:38;102124.97;;;19.66;49.40
53550;BME280;67273;52.914;-0.982;2023-05-21T05:17:04;102121.41;;;19.65;49.47
53550;BME280;67273;52.914;-0.982;2023-05-21T05:19:31;102123.06;;;19.66;49.48
53550;BME280;67273;52.914;-0.982;2023-05-21T05:21:57;102126.00;;;19.65;49.38
53550;BME280;67273;52.914;-0.982;2023-05-21T05:24:23;102120.53;;;19.65;49.39
53550;BME280;67273;52.914;-0.982;2023-05-21T05:26:48;102115.31;;;19.63;49.45
53550;BME280;67273;52.914;-0.982;2023-05-21T05:29:15;102122.66;;;19.63;49.31
53550;BME280;67273;52.914;-0.982;2023-05-21T05:31:40;102118.06;;;19.63;49.45
53550;BME280;67273;52.914;-0.982;2023-05-21T05:34:06;102120.97;;;19.62;49.33
53550;BME280;67273;52.914;-0.982;2023-05-21T05:36:34;102120.97;;;19.62;49.45
53550;BME280;67273;52.914;-0.982;2023-05-21T05:39:02;102120.97;;;19.62;49.31
53550;BME280;67273;52.914;-0.982;2023-05-21T05:41:28;102113.84;;;19.61;49.35
53550;BME280;67273;52.914;-0.982;2023-05-21T05:43:54;102122.03;;;19.61;49.41
53550;BME280;67273;52.914;-0.982;2023-05-21T05:46:21;102125.56;;;19.61;49.24
53550;BME280;67273;52.914;-0.982;2023-05-21T05:48:47;102119.50;;;19.59;49.33
53550;BME280;67273;52.914;-0.982;2023-05-21T05:51:13;102118.47;;;19.60;49.26
53550;BME280;67273;52.914;-0.982;2023-05-21T05:53:41;102121.41;;;19.59;49.27
53550;BME280;67273;52.914;-0.982;2023-05-21T05:56:09;102117.84;;;19.58;49.46
53550;BME280;67273;52.914;-0.982;2023-05-21T05:58:35;102121.59;;;19.57;49.25
53550;BME280;67273;52.914;-0.982;2023-05-21T06:01:10;102120.56;;;19.58;49.34
53550;BME280;67273;52.914;-0.982;2023-05-21T06:03:36;102119.69;;;19.57;49.42
53550;BME280;67273;52.914;-0.982;2023-05-21T06:06:09;102119.69;;;19.57;49.33
53550;BME280;67273;52.914;-0.982;2023-05-21T06:08:36;102115.53;;;19.55;49.31
53550;BME280;67273;52.914;-0.982;2023-05-21T06:11:03;102121.81;;;19.55;49.25
53550;BME280;67273;52.914;-0.982;2023-05-21T06:13:29;102122.66;;;19.56;49.29
53550;BME280;67273;52.914;-0.982;2023-05-21T06:15:56;102114.69;;;19.54;49.28
53550;BME280;67273;52.914;-0.982;2023-05-21T06:18:22;102123.69;;;19.55;49.30
53550;BME280;67273;52.914;-0.982;2023-05-21T06:20:47;102123.69;;;19.55;49.32
53550;BME280;67273;52.914;-0.982;2023-05-21T06:23:14;102128.13;;;19.56;49.43
53550;BME280;67273;52.914;-0.982;2023-05-21T06:25:42;102126.44;;;19.55;49.30
53550;BME280;67273;52.914;-0.982;2023-05-21T06:28:09;102125.59;;;19.54;49.29
53550;BME280;67273;52.914;-0.982;2023-05-21T06:30:35;102117.41;;;19.54;49.42
53550;BME280;67273;52.914;-0.982;2023-05-21T06:33:01;102125.59;;;19.54;49.25
53550;BME280;67273;52.914;-0.982;2023-05-21T06:35:26;102129.34;;;19.53;49.25
53550;BME280;67273;52.914;-0.982;2023-05-21T06:37:52;102132.09;;;19.53;49.14
53550;BME280;67273;52.914;-0.982;2023-05-21T06:40:19;102136.50;;;19.54;49.42
53550;BME280;67273;52.914;-0.982;2023-05-21T06:42:45;102140.25;;;19.53;49.25
53550;BME280;67273;52.914;-0.982;2023-05-21T06:45:22;102129.34;;;19.53;49.29
53550;BME280;67273;52.914;-0.982;2023-05-21T06:47:51;102135.66;;;19.54;49.26
53550;BME280;67273;52.914;-0.982;2023-05-21T06:50:16;102129.34;;;19.53;49.87
53550;BME280;67273;52.914;-0.982;2023-05-21T06:52:42;102130.19;;;19.61;50.16
53550;BME280;67273;52.914;-0.982;2023-05-21T06:55:08;102132.72;;;19.55;50.67
53550;BME280;67273;52.914;-0.982;2023-05-21T06:57:56;102121.81;;;19.55;51.08
53550;BME280;67273;52.914;-0.982;2023-05-21T07:00:23;102121.19;;;19.53;51.18
53550;BME280;67273;52.914;-0.982;2023-05-21T07:02:49;102120.34;;;19.53;51.00
53550;BME280;67273;52.914;-0.982;2023-05-21T07:05:15;102118.47;;;19.53;50.72
53550;BME280;67273;52.914;-0.982;2023-05-21T07:07:41;102121.19;;;19.53;50.57
53550;BME280;67273;52.914;-0.982;2023-05-21T07:10:08;102121.19;;;19.53;50.56
53550;BME280;67273;52.914;-0.982;2023-05-21T07:12:34;102121.19;;;19.53;50.36
53550;BME280;67273;52.914;-0.982;2023-05-21T07:15:02;102121.19;;;19.53;50.29
53550;BME280;67273;52.914;-0.982;2023-05-21T07:17:29;102112.16;;;19.53;50.38
53550;BME280;67273;52.914;-0.982;2023-05-21T07:19:55;102120.16;;;19.54;50.23
53550;BME280;67273;52.914;-0.982;2023-05-21T07:22:23;102124.75;;;19.54;50.11
53550;BME280;67273;52.914;-0.982;2023-05-21T07:24:48;102124.75;;;19.54;50.24
53550;BME280;67273;52.914;-0.982;2023-05-21T07:27:16;102113.84;;;19.54;50.10
53550;BME280;67273;52.914;-0.982;2023-05-21T07:29:42;102126.44;;;19.55;50.28
53550;BME280;67273;52.914;-0.982;2023-05-21T07:32:07;102117.63;;;19.53;50.23
53550;BME280;67273;52.914;-0.982;2023-05-21T07:34:35;102122.25;;;19.52;50.10
53550;BME280;67273;52.914;-0.982;2023-05-21T07:37:01;102117.63;;;19.53;50.04
53550;BME280;67273;52.914;-0.982;2023-05-21T07:39:27;102125.59;;;19.54;49.89
53550;BME280;67273;52.914;-0.982;2023-05-21T07:41:54;102132.09;;;19.53;49.99
53550;BME280;67273;52.914;-0.982;2023-05-21T07:44:20;102126.63;;;19.53;49.87
53550;BME280;67273;52.914;-0.982;2023-05-21T07:46:47;102123.91;;;19.53;49.96
53550;BME280;67273;52.914;-0.982;2023-05-21T07:49:13;102123.91;;;19.53;49.92
53550;BME280;67273;52.914;-0.982;2023-05-21T07:51:44;102118.47;;;19.53;49.95
53550;BME280;67273;52.914;-0.982;2023-05-21T07:54:10;102129.34;;;19.53;49.97
53550;BME280;67273;52.914;-0.982;2023-05-21T07:56:36;102130.19;;;19.54;49.98
53550;BME280;67273;52.914;-0.982;2023-05-21T07:59:04;102132.72;;;19.62;49.86
53550;BME280;67273;52.914;-0.982;2023-05-21T08:01:30;102132.50;;;19.64;50.24
53550;BME280;67273;52.914;-0.982;2023-05-21T08:03:57;102130.41;;;19.66;50.25
53550;BME280;67273;52.914;-0.982;2023-05-21T08:06:25;102128.50;;;19.66;50.21
53550;BME280;67273;52.914;-0.982;2023-05-21T08:08:52;102130.41;;;19.66;50.46
53550;BME280;67273;52.914;-0.982;2023-05-21T08:11:19;102126.44;;;19.75;51.54
53550;BME280;67273;52.914;-0.982;2023-05-21T08:13:47;102122.22;;;19.66;51.38
53550;BME280;67273;52.914;-0.982;2023-05-21T08:16:13;102117.63;;;19.73;51.88
53550;BME280;67273;52.914;-0.982;2023-05-21T08:18:39;102121.19;;;19.67;51.79
53550;BME280;67273;52.914;-0.982;2023-05-21T08:21:05;102112.59;;;19.63;51.48
53550;BME280;67273;52.914;-0.982;2023-05-21T08:23:31;102115.31;;;19.63;51.31
53550;BME280;67273;52.914;-0.982;2023-05-21T08:26:00;102111.75;;;19.63;51.18
53550;BME280;67273;52.914;-0.982;2023-05-21T08:28:25;102116.38;;;19.62;51.10
53550;BME280;67273;52.914;-0.982;2023-05-21T08:30:53;102115.53;;;19.62;51.14
53550;BME280;67273;52.914;-0.982;2023-05-21T08:33:21;102110.06;;;19.62;50.96
53550;BME280;67273;52.914;-0.982;2023-05-21T08:35:47;102110.06;;;19.62;51.02
53550;BME280;67273;52.914;-0.982;2023-05-21T08:38:16;102109.47;;;19.60;50.99
53550;BME280;67273;52.914;-0.982;2023-05-21T08:40:57;102107.56;;;19.67;51.04
53550;BME280;67273;52.914;-0.982;2023-05-21T08:43:26;102111.16;;;19.74;51.31
53550;BME280;67273;52.914;-0.982;2023-05-21T08:45:54;102115.50;;;19.68;51.45
53550;BME280;67273;52.914;-0.982;2023-05-21T08:48:22;102110.50;;;19.65;51.30
53550;BME280;67273;52.914;-0.982;2023-05-21T08:50:49;102107.97;;;19.64;50.94
53550;BME280;67273;52.914;-0.982;2023-05-21T08:53:21;102115.31;;;19.63;50.93
53550;BME280;67273;52.914;-0.982;2023-05-21T08:55:50;102114.47;;;19.63;50.96
53550;BME280;67273;52.914;-0.982;2023-05-21T08:58:17;102111.75;;;19.63;50.89
53550;BME280;67273;52.914;-0.982;2023-05-21T09:00:45;102111.75;;;19.63;50.82
53550;BME280;67273;52.914;-0.982;2023-05-21T09:03:11;102116.38;;;19.62;50.71
53550;BME280;67273;52.914;-0.982;2023-05-21T09:05:42;102113.63;;;19.62;50.51
53550;BME280;67273;52.914;-0.982;2023-05-21T09:08:13;102121.81;;;19.62;50.69
53550;BME280;67273;52.914;-0.982;2023-05-21T09:11:08;102119.09;;;19.62;50.53
53550;BME280;67273;52.914;-0.982;2023-05-21T09:13:40;102122.66;;;19.63;50.64
53550;BME280;67273;52.914;-0.982;2023-05-21T09:16:15;102118.25;;;19.62;50.63
53550;BME280;67273;52.914;-0.982;2023-05-21T09:18:42;102118.25;;;19.62;50.30
53550;BME280;67273;52.914;-0.982;2023-05-21T09:21:23;102115.53;;;19.62;50.51
53550;BME280;67273;52.914;-0.982;2023-05-21T09:23:56;102104.63;;;19.62;50.54
53550;BME280;67273;52.914;-0.982;2023-05-21T09:26:22;102106.50;;;19.61;50.38
53550;BME280;67273;52.914;-0.982;2023-05-21T09:28:48;102110.06;;;19.62;50.36
53550;BME280;67273;52.914;-0.982;2023-05-21T09:31:16;102106.50;;;19.61;50.38
53550;BME280;67273;52.914;-0.982;2023-05-21T09:33:45;102093.72;;;19.62;50.35
53550;BME280;67273;52.914;-0.982;2023-05-21T09:36:12;102090.13;;;19.61;50.26
53550;BME280;67273;52.914;-0.982;2023-05-21T09:38:38;102091.00;;;19.62;50.36
53550;BME280;67273;52.914;-0.982;2023-05-21T09:41:05;102093.72;;;19.62;50.25
53550;BME280;67273;52.914;-0.982;2023-05-21T09:43:33;102091.00;;;19.62;50.30
53550;BME280;67273;52.914;-0.982;2023-05-21T09:46:01;102089.94;;;19.63;50.23
53550;BME280;67273;52.914;-0.982;2023-05-21T09:48:37;102098.97;;;19.63;50.42
53550;BME280;67273;52.914;-0.982;2023-05-21T09:51:13;102095.38;;;19.63;50.30
53550;BME280;67273;52.914;-0.982;2023-05-21T09:53:43;102096.25;;;19.63;50.22
53550;BME280;67273;52.914;-0.982;2023-05-21T09:56:11;102089.94;;;19.63;50.27
53550;BME280;67273;52.914;-0.982;2023-05-21T09:58:42;102089.94;;;19.63;50.18
53550;BME280;67273;52.914;-0.982;2023-05-21T10:01:09;102090.78;;;19.63;50.16
53550;BME280;67273;52.914;-0.982;2023-05-21T10:03:38;102091.63;;;19.64;50.29
53550;BME280;67273;52.914;-0.982;2023-05-21T10:06:07;102091.63;;;19.64;50.15
53550;BME280;67273;52.914;-0.982;2023-05-21T10:08:35;102102.53;;;19.64;49.92
53550;BME280;67273;52.914;-0.982;2023-05-21T10:11:03;102086.16;;;19.64;50.14
53550;BME280;67273;52.914;-0.982;2023-05-21T10:13:30;102086.16;;;19.64;49.98
53550;BME280;67273;52.914;-0.982;2023-05-21T10:16:01;102088.06;;;19.63;49.99
53550;BME280;67273;52.914;-0.982;2023-05-21T10:18:29;102097.06;;;19.64;50.09
53550;BME280;67273;52.914;-0.982;2023-05-21T10:20:59;102086.16;;;19.64;50.06
53550;BME280;67273;52.914;-0.982;2023-05-21T10:23:27;102081.53;;;19.64;50.14
53550;BME280;67273;52.914;-0.982;2023-05-21T10:25:54;102082.41;;;19.78;50.98
53550;BME280;67273;52.914;-0.982;2023-05-21T10:28:21;102081.13;;;19.87;51.03
53550;BME280;67273;52.914;-0.982;2023-05-21T10:30:48;102080.28;;;19.80;51.00
53550;BME280;67273;52.914;-0.982;2023-05-21T10:33:19;102083.69;;;19.75;50.87
53550;BME280;67273;52.914;-0.982;2023-05-21T10:35:49;102077.56;;;19.73;51.09
53550;BME280;67273;52.914;-0.982;2023-05-21T10:38:17;102076.72;;;19.73;51.13
53550;BME280;67273;52.914;-0.982;2023-05-21T10:40:45;102065.19;;;19.71;51.15
53550;BME280;67273;52.914;-0.982;2023-05-21T10:43:36;102065.19;;;19.71;50.88
53550;BME280;67273;52.914;-0.982;2023-05-21T10:46:10;102068.94;;;19.70;50.96
53550;BME280;67273;52.914;-0.982;2023-05-21T10:48:57;102062.44;;;19.71;51.13
53550;BME280;67273;52.914;-0.982;2023-05-21T10:51:27;102051.53;;;19.71;50.77
53550;BME280;67273;52.914;-0.982;2023-05-21T10:54:07;102054.28;;;19.71;50.63
53550;BME280;67273;52.914;-0.982;2023-05-21T10:56:40;102049.84;;;19.70;50.63
53550;BME280;67273;52.914;-0.982;2023-05-21T10:59:14;102059.72;;;19.71;50.63
53550;BME280;67273;52.914;-0.982;2023-05-21T11:01:47;102055.09;;;19.71;50.33
53550;BME280;67273;52.914;-0.982;2023-05-21T11:04:14;102053.22;;;19.72;50.42
53550;BME280;67273;52.914;-0.982;2023-05-21T11:06:45;102048.81;;;19.71;50.58
53550;BME280;67273;52.914;-0.982;2023-05-21T11:09:14;102051.34;;;19.72;50.41
53550;BME280;67273;52.914;-0.982;2023-05-21T11:11:42;102045.06;;;19.72;50.11
53550;BME280;67273;52.914;-0.982;2023-05-21T11:14:28;102047.78;;;19.72;50.12
53550;BME280;67273;52.914;-0.982;2023-05-21T11:16:56;102044.84;;;19.73;50.20
53550;BME280;67273;52.914;-0.982;2023-05-21T11:19:31;102040.25;;;19.74;50.25
53550;BME280;67273;52.914;-0.982;2023-05-21T11:21:58;102044.63;;;19.75;50.02
53550;BME280;67273;52.914;-0.982;2023-05-21T11:24:25;102036.47;;;19.75;50.08
53550;BME280;67273;52.914;-0.982;2023-05-21T11:27:00;102040.03;;;19.75;50.11
53550;BME280;67273;52.914;-0.982;2023-05-21T11:29:39;102029.13;;;19.75;50.07
53550;BME280;67273;52.914;-0.982;2023-05-21T11:32:06;102035.41;;;19.76;49.86
53550;BME280;67273;52.914;-0.982;2023-05-21T11:34:38;102033.31;;;19.78;49.92
53550;BME280;67273;52.914;-0.982;2023-05-21T11:37:26;102026.81;;;19.79;49.94
53550;BME280;67273;52.914;-0.982;2023-05-21T11:39:55;102031.19;;;19.80;49.83
53550;BME280;67273;52.914;-0.982;2023-05-21T11:42:31;102031.19;;;19.80;49.82
53550;BME280;67273;52.914;-0.982;2023-05-21T11:44:58;102021.97;;;19.81;49.92
53550;BME280;67273;52.914;-0.982;2023-05-21T11:47:25;102023.63;;;19.82;49.73
53550;BME280;67273;52.914;-0.982;2023-05-21T11:49:51;102022.59;;;19.83;49.53
53550;BME280;67273;52.914;-0.982;2023-05-21T11:52:17;102016.06;;;19.84;49.73
53550;BME280;67273;52.914;-0.982;2023-05-21T11:54:48;102015.88;;;19.86;49.73
53550;BME280;67273;52.914;-0.982;2023-05-21T11:57:17;102024.03;;;19.86;49.71
53550;BME280;67273;52.914;-0.982;2023-05-21T11:59:44;102016.72;;;19.86;49.69
53550;BME280;67273;52.914;-0.982;2023-05-21T12:02:13;102014.00;;;19.86;49.55
53550;BME280;67273;52.914;-0.982;2023-05-21T12:04:41;102010.19;;;19.87;49.54
53550;BME280;67273;52.914;-0.982;2023-05-21T12:07:07;102011.03;;;19.88;49.70
53550;BME280;67273;52.914;-0.982;2023-05-21T12:09:38;102002.63;;;19.89;49.48
53550;BME280;67273;52.914;-0.982;2023-05-21T12:12:04;102019.00;;;19.89;49.55
53550;BME280;67273;52.914;-0.982;2023-05-21T12:14:32;102019.00;;;19.89;49.45
53550;BME280;67273;52.914;-0.982;2023-05-21T12:16:58;102003.50;;;19.90;49.43
53550;BME280;67273;52.914;-0.982;2023-05-21T12:19:23;102011.44;;;19.91;49.46
53550;BME280;67273;52.914;-0.982;2023-05-21T12:21:50;102015.84;;;19.92;49.51
53550;BME280;67273;52.914;-0.982;2023-05-21T12:24:15;102014.81;;;19.93;49.51
53550;BME280;67273;52.914;-0.982;2023-05-21T12:26:42;102007.66;;;19.92;49.53
53550;BME280;67273;52.914;-0.982;2023-05-21T12:29:08;102004.94;;;19.92;49.51
53550;BME280;67273;52.914;-0.982;2023-05-21T12:31:47;102003.03;;;19.93;49.51
53550;BME280;67273;52.914;-0.982;2023-05-21T12:34:36;101998.44;;;19.93;49.50
53550;BME280;67273;52.914;-0.982;2023-05-21T12:37:03;101995.50;;;19.95;49.46
53550;BME280;67273;52.914;-0.982;2023-05-21T12:39:30;101992.53;;;19.97;49.41
53550;BME280;67273;52.914;-0.982;2023-05-21T12:41:55;101998.00;;;19.97;49.35
53550;BME280;67273;52.914;-0.982;2023-05-21T12:44:21;101998.00;;;19.97;49.47
53550;BME280;67273;52.914;-0.982;2023-05-21T12:46:48;101992.53;;;19.97;49.49